createdAt,value
2018-08-18T00:00:17.468Z,99.99
2018-08-18T00:01:17.472Z,99.99
2018-08-18T00:02:17.441Z,99.99
2018-08-18T00:03:17.429Z,99.99
2018-08-18T00:04:17.410Z,99.99
2018-08-18T00:05:17.403Z,99.99
2018-08-18T00:06:17.397Z,99.99
2018-08-18T00:07:17.370Z,99.99
2018-08-18T00:08:17.354Z,99.99
2018-08-18T00:09:17.340Z,99.99
2018-08-18T00:10:17.323Z,99.99
2018-08-18T00:11:17.327Z,99.99
2018-08-18T00:12:17.312Z,99.99
2018-08-18T00:13:17.279Z,99.99
2018-08-18T00:14:17.265Z,99.99
2018-08-18T00:15:17.253Z,99.99
2018-08-18T00:16:17.236Z,99.99
2018-08-18T00:17:17.225Z,99.99
2018-08-18T00:18:17.223Z,99.99
2018-08-18T00:19:17.194Z,99.99
2018-08-18T00:20:17.178Z,99.99
2018-08-18T00:21:17.162Z,99.99
2018-08-18T00:22:17.159Z,99.99
2018-08-18T00:23:17.131Z,99.99
2018-08-18T00:24:17.128Z,99.99
2018-08-18T00:25:17.103Z,99.99
2018-08-18T00:26:17.086Z,99.99
2018-08-18T00:27:17.071Z,99.99
2018-08-18T00:28:17.069Z,99.99
2018-08-18T00:29:17.044Z,99.99
2018-08-18T00:30:17.029Z,99.99
2018-08-18T00:31:17.013Z,99.99
2018-08-18T00:32:16.997Z,99.99
2018-08-18T00:33:16.996Z,99.99
2018-08-18T00:34:17.052Z,99.99
2018-08-18T00:35:16.966Z,99.99
2018-08-18T00:36:16.938Z,99.99
2018-08-18T00:37:16.923Z,99.99
2018-08-18T00:38:16.922Z,99.99
2018-08-18T00:39:16.893Z,99.99
2018-08-18T00:40:16.890Z,99.99
2018-08-18T00:41:16.862Z,99.99
2018-08-18T00:42:16.846Z,99.99
2018-08-18T00:43:16.832Z,99.99
2018-08-18T00:44:16.816Z,99.99
2018-08-18T00:45:16.816Z,99.99
2018-08-18T00:46:16.782Z,99.99
2018-08-18T00:47:16.770Z,99.99
2018-08-18T00:48:16.752Z,99.99
2018-08-18T00:49:16.735Z,99.99
2018-08-18T00:50:16.729Z,99.99
2018-08-18T00:51:16.724Z,99.99
2018-08-18T00:52:16.694Z,99.99
2018-08-18T00:53:16.677Z,99.99
2018-08-18T00:54:16.667Z,99.99
2018-08-18T00:55:16.644Z,99.99
2018-08-18T00:56:16.648Z,99.99
2018-08-18T00:57:16.620Z,99.99
2018-08-18T00:58:16.605Z,99.99
2018-08-18T00:59:16.586Z,99.99
2018-08-18T01:00:16.575Z,99.99
2018-08-18T01:01:16.573Z,99.99
2018-08-18T01:02:16.540Z,99.99
2018-08-18T01:03:16.524Z,99.99
2018-08-18T01:04:16.508Z,99.99
2018-08-18T01:05:16.498Z,99.99
2018-08-18T01:06:16.476Z,99.99
2018-08-18T01:07:16.483Z,99.99
2018-08-18T01:08:16.451Z,99.99
2018-08-18T01:09:16.433Z,99.99
2018-08-18T01:10:16.421Z,99.99
2018-08-18T01:11:16.469Z,99.99
2018-08-18T01:12:16.483Z,99.99
2018-08-18T01:13:16.378Z,99.99
2018-08-18T01:14:16.492Z,99.99
2018-08-18T01:15:16.344Z,99.99
2018-08-18T01:16:16.333Z,99.99
2018-08-18T01:17:16.331Z,99.99
2018-08-18T01:18:16.295Z,99.99
2018-08-18T01:19:16.279Z,99.99
2018-08-18T01:20:16.268Z,99.99
2018-08-18T01:21:16.282Z,99.99
2018-08-18T01:22:16.235Z,99.99
2018-08-18T01:23:16.232Z,99.99
2018-08-18T01:24:16.207Z,99.99
2018-08-18T01:25:16.187Z,99.99
2018-08-18T01:26:16.172Z,99.99
2018-08-18T01:27:16.163Z,99.99
2018-08-18T01:28:16.156Z,99.99
2018-08-18T01:29:16.123Z,99.99
2018-08-18T01:30:16.108Z,99.99
2018-08-18T01:31:16.097Z,99.99
2018-08-18T01:32:16.081Z,99.99
2018-08-18T01:33:16.078Z,99.99
2018-08-18T01:34:16.060Z,99.99
2018-08-18T01:35:16.033Z,99.99
2018-08-18T01:36:16.021Z,99.99
2018-08-18T01:37:16.004Z,99.99
2018-08-18T01:38:15.997Z,99.99
2018-08-18T01:39:15.970Z,99.99
2018-08-18T01:40:15.956Z,99.99
2018-08-18T01:41:15.941Z,99.99
2018-08-18T01:42:15.939Z,99.99
2018-08-18T01:43:15.909Z,99.99
2018-08-18T01:44:15.894Z,99.99
2018-08-18T01:45:15.893Z,99.99
2018-08-18T01:46:15.867Z,99.99
2018-08-18T01:47:15.849Z,99.99
2018-08-18T01:48:15.847Z,99.99
2018-08-18T01:49:15.811Z,99.99
2018-08-18T01:50:15.837Z,99.99
2018-08-18T01:51:15.787Z,99.99
2018-08-18T01:52:15.770Z,99.99
2018-08-18T01:53:15.756Z,99.99
2018-08-18T01:54:15.745Z,99.99
2018-08-18T01:55:15.728Z,99.99
2018-08-18T01:56:15.724Z,99.99
2018-08-18T01:57:15.691Z,99.99
2018-08-18T01:58:15.683Z,99.99
2018-08-18T01:59:15.660Z,99.99
2018-08-18T02:00:15.661Z,99.99
2018-08-18T02:01:15.632Z,99.99
2018-08-18T02:02:15.632Z,99.99
2018-08-18T02:03:15.599Z,99.99
2018-08-18T02:04:15.585Z,99.99
2018-08-18T02:05:15.565Z,99.99
2018-08-18T02:06:15.587Z,99.99
2018-08-18T02:07:15.540Z,99.99
2018-08-18T02:08:15.518Z,99.99
2018-08-18T02:09:15.510Z,99.99
2018-08-18T02:10:15.491Z,99.99
2018-08-18T02:11:15.476Z,99.99
2018-08-18T02:12:15.470Z,99.99
2018-08-18T02:13:15.440Z,99.99
2018-08-18T02:14:15.426Z,99.99
2018-08-18T02:15:15.413Z,99.99
2018-08-18T02:16:15.397Z,99.99
2018-08-18T02:17:15.421Z,99.99
2018-08-18T02:18:15.362Z,99.99
2018-08-18T02:19:15.351Z,99.99
2018-08-18T02:20:15.335Z,99.99
2018-08-18T02:21:15.320Z,99.99
2018-08-18T02:22:15.299Z,99.99
2018-08-18T02:23:15.297Z,99.99
2018-08-18T02:24:15.273Z,99.99
2018-08-18T02:25:15.255Z,99.99
2018-08-18T02:26:15.239Z,99.99
2018-08-18T02:27:15.219Z,99.99
2018-08-18T02:28:15.224Z,99.99
2018-08-18T02:29:15.208Z,99.99
2018-08-18T02:30:15.178Z,99.99
2018-08-18T02:31:15.159Z,99.99
2018-08-18T02:32:15.147Z,99.99
2018-08-18T02:33:15.144Z,99.99
2018-08-18T02:34:15.113Z,99.99
2018-08-18T02:35:15.092Z,99.99
2018-08-18T02:36:15.078Z,99.99
2018-08-18T02:37:15.064Z,99.99
2018-08-18T02:38:15.063Z,99.99
2018-08-18T02:39:15.028Z,99.99
2018-08-18T02:40:15.131Z,99.99
2018-08-18T02:41:15.000Z,99.99
2018-08-18T02:42:14.985Z,99.99
2018-08-18T02:43:15.005Z,99.99
2018-08-18T02:44:14.955Z,99.99
2018-08-18T02:45:14.933Z,99.99
2018-08-18T02:46:14.921Z,99.99
2018-08-18T02:47:14.904Z,99.99
2018-08-18T02:48:14.889Z,99.99
2018-08-18T02:49:14.888Z,99.99
2018-08-18T02:50:14.854Z,99.99
2018-08-18T02:51:14.840Z,99.99
2018-08-18T02:52:14.828Z,99.99
2018-08-18T02:53:14.809Z,99.99
2018-08-18T02:54:14.809Z,99.99
2018-08-18T02:55:14.791Z,99.99
2018-08-18T02:56:14.760Z,99.99
2018-08-18T02:57:14.745Z,99.99
2018-08-18T02:58:14.727Z,99.99
2018-08-18T02:59:14.728Z,99.99
2018-08-18T03:00:14.694Z,99.99
2018-08-18T03:01:14.681Z,99.99
2018-08-18T03:02:14.657Z,99.99
2018-08-18T03:03:14.662Z,99.99
2018-08-18T03:04:14.643Z,99.99
2018-08-18T03:05:14.617Z,99.99
2018-08-18T03:06:14.598Z,99.99
2018-08-18T03:07:14.582Z,99.99
2018-08-18T03:08:14.567Z,99.99
2018-08-18T03:09:14.564Z,99.99
2018-08-18T03:10:14.533Z,99.99
2018-08-18T03:11:14.518Z,99.99
2018-08-18T03:12:14.538Z,99.99
2018-08-18T03:13:14.481Z,99.99
2018-08-18T03:14:14.470Z,99.99
2018-08-18T03:15:14.452Z,99.99
2018-08-18T03:16:14.436Z,99.99
2018-08-18T03:17:14.419Z,99.99
2018-08-18T03:18:14.421Z,99.99
2018-08-18T03:19:14.385Z,99.99
2018-08-18T03:20:14.372Z,99.99
2018-08-18T03:21:14.355Z,99.99
2018-08-18T03:22:14.339Z,99.99
2018-08-18T03:23:14.336Z,99.99
2018-08-18T03:24:14.320Z,99.99
2018-08-18T03:25:14.285Z,99.99
2018-08-18T03:26:14.274Z,99.99
2018-08-18T03:27:14.271Z,99.99
2018-08-18T03:28:14.258Z,99.99
2018-08-18T03:29:14.283Z,99.99
2018-08-18T03:30:14.210Z,99.99
2018-08-18T03:31:14.218Z,99.99
2018-08-18T03:32:14.176Z,99.99
2018-08-18T03:33:14.162Z,99.99
2018-08-18T03:34:14.145Z,99.99
2018-08-18T03:35:14.127Z,99.99
2018-08-18T03:36:14.112Z,99.99
2018-08-18T03:37:14.110Z,99.99
2018-08-18T03:38:14.079Z,99.99
2018-08-18T03:39:14.077Z,99.99
2018-08-18T03:40:14.049Z,99.99
2018-08-18T03:41:14.028Z,99.99
2018-08-18T03:42:14.013Z,99.99
2018-08-18T03:43:13.996Z,99.99
2018-08-18T03:44:13.996Z,99.99
2018-08-18T03:45:13.964Z,99.99
2018-08-18T03:46:13.948Z,99.99
2018-08-18T03:47:13.933Z,99.99
2018-08-18T03:48:13.911Z,99.99
2018-08-18T03:49:13.914Z,99.99
2018-08-18T03:50:13.884Z,99.99
2018-08-18T03:51:13.865Z,99.99
2018-08-18T03:52:13.874Z,99.99
2018-08-18T03:53:13.835Z,99.99
2018-08-18T03:54:13.834Z,99.99
2018-08-18T03:55:13.805Z,99.99
2018-08-18T03:56:13.789Z,99.99
2018-08-18T03:57:13.766Z,99.99
2018-08-18T03:58:13.751Z,99.99
2018-08-18T03:59:13.738Z,99.99
2018-08-18T04:00:13.730Z,99.99
2018-08-18T04:01:13.707Z,99.99
2018-08-18T04:02:13.711Z,99.99
2018-08-18T04:03:13.671Z,99.99
2018-08-18T04:04:13.653Z,99.99
2018-08-18T04:05:13.650Z,99.99
2018-08-18T04:06:13.617Z,99.99
2018-08-18T04:07:13.605Z,99.99
2018-08-18T04:08:13.589Z,99.99
2018-08-18T04:09:13.602Z,99.99
2018-08-18T04:10:13.572Z,99.99
2018-08-18T04:11:13.537Z,99.99
2018-08-18T04:12:13.525Z,99.99
2018-08-18T04:13:13.509Z,99.99
2018-08-18T04:14:13.489Z,99.99
2018-08-18T04:15:13.484Z,99.99
2018-08-18T04:16:13.473Z,99.99
2018-08-18T04:17:13.439Z,99.99
2018-08-18T04:18:13.424Z,99.99
2018-08-18T04:19:13.408Z,99.99
2018-08-18T04:20:13.405Z,99.99
2018-08-18T04:21:13.385Z,99.99
2018-08-18T04:22:13.358Z,99.99
2018-08-18T04:23:13.341Z,99.99
2018-08-18T04:24:13.326Z,99.99
2018-08-18T04:25:13.397Z,99.99
2018-08-18T04:26:13.292Z,99.99
2018-08-18T04:27:13.276Z,99.99
2018-08-18T04:28:13.260Z,99.99
2018-08-18T04:29:13.243Z,99.99
2018-08-18T04:30:13.264Z,99.99
2018-08-18T04:31:13.221Z,99.99
2018-08-18T04:32:13.191Z,99.99
2018-08-18T04:33:13.177Z,99.99
2018-08-18T04:34:13.160Z,99.99
2018-08-18T04:35:13.200Z,99.99
2018-08-18T04:36:13.143Z,99.99
2018-08-18T04:37:13.108Z,99.99
2018-08-18T04:38:13.091Z,99.99
2018-08-18T04:39:13.641Z,99.99
2018-08-18T04:40:13.071Z,99.99
2018-08-18T04:41:13.043Z,99.99
2018-08-18T04:42:13.057Z,99.99
2018-08-18T04:43:13.012Z,99.99
2018-08-18T04:44:12.992Z,99.99
2018-08-18T04:45:13.089Z,99.99
2018-08-18T04:46:12.959Z,99.99
2018-08-18T04:47:12.958Z,99.99
2018-08-18T04:48:12.928Z,99.99
2018-08-18T04:49:12.907Z,99.99
2018-08-18T04:50:12.895Z,99.99
2018-08-18T04:51:35.120Z,99.99
2018-08-18T04:52:12.875Z,99.99
2018-08-18T04:53:12.852Z,99.99
2018-08-18T04:54:12.827Z,99.99
2018-08-18T04:55:12.820Z,99.99
2018-08-18T04:56:12.813Z,99.99
2018-08-18T04:57:12.778Z,99.99
2018-08-18T04:58:12.763Z,99.99
2018-08-18T04:59:12.782Z,99.99
2018-08-18T05:00:12.730Z,99.99
2018-08-18T05:01:12.729Z,99.99
2018-08-18T05:02:12.695Z,99.99
2018-08-18T05:03:12.695Z,99.99
2018-08-18T05:04:12.706Z,99.99
2018-08-18T05:05:12.704Z,99.99
2018-08-18T05:06:12.645Z,99.99
2018-08-18T05:07:12.613Z,99.99
2018-08-18T05:08:12.609Z,99.99
2018-08-18T05:09:12.580Z,99.99
2018-08-18T05:10:12.564Z,99.99
2018-08-18T05:11:12.548Z,99.99
2018-08-18T05:12:12.534Z,99.99
2018-08-18T05:13:12.527Z,99.99
2018-08-18T05:14:12.493Z,99.99
2018-08-18T05:15:12.548Z,99.99
2018-08-18T05:16:12.464Z,99.99
2018-08-18T05:17:12.451Z,99.99
2018-08-18T05:18:12.447Z,99.99
2018-08-18T05:19:12.453Z,99.99
2018-08-18T05:20:12.400Z,99.99
2018-08-18T05:21:12.378Z,99.99
2018-08-18T05:22:12.367Z,99.99
2018-08-18T05:23:12.369Z,99.99
2018-08-18T05:24:12.334Z,99.99
2018-08-18T05:25:12.318Z,99.99
2018-08-18T05:26:12.297Z,99.99
2018-08-18T05:27:12.284Z,99.99
2018-08-18T05:28:12.284Z,99.99
2018-08-18T05:29:12.267Z,99.99
2018-08-18T05:30:12.267Z,99.99
2018-08-18T05:31:12.217Z,99.99
2018-08-18T05:32:12.211Z,99.99
2018-08-18T05:33:12.184Z,99.99
2018-08-18T05:34:12.169Z,99.99
2018-08-18T05:35:12.153Z,99.99
2018-08-18T05:36:12.154Z,99.99
2018-08-18T05:37:12.122Z,99.99
2018-08-18T05:38:12.103Z,99.99
2018-08-18T05:39:12.092Z,99.99
2018-08-18T05:40:12.091Z,99.99
2018-08-18T05:41:12.070Z,99.99
2018-08-18T05:42:12.044Z,99.99
2018-08-18T05:43:12.023Z,99.99
2018-08-18T05:44:12.063Z,99.99
2018-08-18T05:45:11.992Z,99.99
2018-08-18T05:46:11.992Z,99.99
2018-08-18T05:47:12.008Z,99.99
2018-08-18T05:48:11.949Z,99.99
2018-08-18T05:49:11.929Z,99.99
2018-08-18T05:50:11.913Z,99.99
2018-08-18T05:51:11.912Z,99.99
2018-08-18T05:52:11.883Z,99.99
2018-08-18T05:53:11.865Z,99.99
2018-08-18T05:54:11.852Z,99.99
2018-08-18T05:55:11.836Z,99.99
2018-08-18T05:56:11.833Z,99.99
2018-08-18T05:57:11.801Z,99.99
2018-08-18T05:58:11.800Z,99.99
2018-08-18T05:59:11.766Z,99.99
2018-08-18T06:00:11.755Z,99.99
2018-08-18T06:01:11.752Z,99.99
2018-08-18T06:02:11.725Z,99.99
2018-08-18T06:03:11.725Z,99.99
2018-08-18T06:04:11.694Z,99.99
2018-08-18T06:05:11.670Z,99.99
2018-08-18T06:06:11.660Z,99.99
2018-08-18T06:07:11.653Z,99.99
2018-08-18T06:08:11.647Z,99.99
2018-08-18T06:09:11.612Z,99.99
2018-08-18T06:10:11.598Z,99.99
2018-08-18T06:11:11.580Z,99.99
2018-08-18T06:12:11.626Z,99.99
2018-08-18T06:13:11.551Z,99.99
2018-08-18T06:14:11.533Z,99.99
2018-08-18T06:15:11.516Z,99.99
2018-08-18T06:16:11.502Z,99.99
2018-08-18T06:17:11.489Z,99.99
2018-08-18T06:18:11.481Z,99.99
2018-08-18T06:19:11.458Z,99.99
2018-08-18T06:20:11.442Z,99.99
2018-08-18T06:21:11.424Z,99.99
2018-08-18T06:22:11.410Z,99.99
2018-08-18T06:23:11.406Z,99.99
2018-08-18T06:24:11.381Z,99.99
2018-08-18T06:25:11.363Z,99.99
2018-08-18T06:26:11.344Z,99.99
2018-08-18T06:27:11.333Z,99.99
2018-08-18T06:28:11.317Z,99.99
2018-08-18T06:29:11.324Z,99.99
2018-08-18T06:30:11.284Z,99.99
2018-08-18T06:31:11.265Z,99.99
2018-08-18T06:32:11.254Z,99.99
2018-08-18T06:33:11.236Z,99.99
2018-08-18T06:34:11.242Z,99.99
2018-08-18T06:35:11.208Z,99.99
2018-08-18T06:36:11.233Z,99.99
2018-08-18T06:37:11.173Z,99.99
2018-08-18T06:38:11.233Z,99.99
2018-08-18T06:39:11.146Z,99.99
2018-08-18T06:40:11.145Z,99.99
2018-08-18T06:41:11.211Z,99.99
2018-08-18T06:42:11.102Z,99.99
2018-08-18T06:43:11.089Z,99.99
2018-08-18T06:44:11.069Z,99.99
2018-08-18T06:45:11.068Z,99.99
2018-08-18T06:46:11.036Z,99.99
2018-08-18T06:47:11.024Z,99.99
2018-08-18T06:48:11.023Z,99.99
2018-08-18T06:49:10.994Z,99.99
2018-08-18T06:50:10.980Z,99.99
2018-08-18T06:51:10.984Z,99.99
2018-08-18T06:52:10.953Z,99.99
2018-08-18T06:53:10.932Z,99.99
2018-08-18T06:54:10.920Z,99.99
2018-08-18T06:55:11.088Z,99.99
2018-08-18T06:56:10.910Z,99.99
2018-08-18T06:57:10.873Z,99.99
2018-08-18T06:58:10.858Z,99.99
2018-08-18T06:59:10.845Z,99.99
2018-08-18T07:00:10.829Z,99.99
2018-08-18T07:01:10.829Z,99.99
2018-08-18T07:02:10.800Z,99.99
2018-08-18T07:03:10.784Z,99.99
2018-08-18T07:04:10.773Z,99.99
2018-08-18T07:05:10.757Z,99.99
2018-08-18T07:06:10.754Z,99.99
2018-08-18T07:07:10.720Z,99.99
2018-08-18T07:08:10.709Z,99.99
2018-08-18T07:09:10.691Z,99.99
2018-08-18T07:10:10.688Z,99.99
2018-08-18T07:11:10.675Z,99.99
2018-08-18T07:12:10.646Z,99.99
2018-08-18T07:13:10.652Z,99.99
2018-08-18T07:14:10.621Z,99.99
2018-08-18T07:15:10.605Z,99.99
2018-08-18T07:16:10.607Z,99.99
2018-08-18T07:17:10.572Z,99.99
2018-08-18T07:18:10.560Z,99.99
2018-08-18T07:19:10.544Z,99.05
2018-08-18T07:20:10.546Z,99.15
2018-08-18T07:21:10.516Z,99.99
2018-08-18T07:22:10.518Z,97.61
2018-08-18T07:23:10.504Z,98.34
2018-08-18T07:24:10.473Z,97.57
2018-08-18T07:25:10.457Z,97.96
2018-08-18T07:26:10.446Z,97.09
2018-08-18T07:27:10.430Z,98.53
2018-08-18T07:28:10.429Z,98.72
2018-08-18T07:29:10.549Z,99.30
2018-08-18T07:30:10.384Z,99.40
2018-08-18T07:31:10.371Z,98.14
2018-08-18T07:32:10.353Z,98.19
2018-08-18T07:33:10.342Z,99.92
2018-08-18T07:34:10.344Z,95.40
2018-08-18T07:35:10.316Z,93.68
2018-08-18T07:36:10.295Z,94.06
2018-08-18T07:37:10.321Z,93.29
2018-08-18T07:38:10.269Z,92.43
2018-08-18T07:39:10.300Z,91.85
2018-08-18T07:40:10.237Z,89.54
2018-08-18T07:41:10.229Z,89.64
2018-08-18T07:42:10.213Z,89.59
2018-08-18T07:43:10.198Z,88.53
2018-08-18T07:44:10.204Z,89.98
2018-08-18T07:45:10.170Z,90.07
2018-08-18T07:46:10.159Z,87.96
2018-08-18T07:47:10.138Z,86.13
2018-08-18T07:48:10.223Z,85.27
2018-08-18T07:49:10.127Z,85.75
2018-08-18T07:50:10.096Z,86.80
2018-08-18T07:51:10.081Z,86.04
2018-08-18T07:52:10.070Z,83.83
2018-08-18T07:53:10.144Z,84.50
2018-08-18T07:54:10.062Z,86.08
2018-08-18T07:55:10.028Z,86.08
2018-08-18T07:56:10.017Z,85.40
2018-08-18T07:57:10.005Z,84.44
2018-08-18T07:58:09.986Z,84.16
2018-08-18T07:59:09.987Z,83.09
2018-08-18T08:00:10.052Z,82.71
2018-08-18T08:01:09.945Z,83.77
2018-08-18T08:02:09.933Z,81.75
2018-08-18T08:03:09.917Z,81.56
2018-08-18T08:04:09.922Z,81.88
2018-08-18T08:05:09.926Z,79.86
2018-08-18T08:06:09.874Z,78.81
2018-08-18T08:07:09.857Z,79.19
2018-08-18T08:08:09.845Z,81.30
2018-08-18T08:09:09.849Z,80.44
2018-08-18T08:10:09.820Z,80.25
2018-08-18T08:11:09.809Z,77.75
2018-08-18T08:12:09.794Z,77.65
2018-08-18T08:13:09.775Z,78.52
2018-08-18T08:14:09.799Z,79.10
2018-08-18T08:15:09.753Z,76.98
2018-08-18T08:16:09.743Z,77.08
2018-08-18T08:17:09.724Z,76.88
2018-08-18T08:18:09.761Z,76.73
2018-08-18T08:19:10.659Z,75.76
2018-08-18T08:20:09.699Z,75.28
2018-08-18T08:21:09.688Z,75.13
2018-08-18T08:22:09.656Z,74.45
2018-08-18T08:23:09.637Z,74.26
2018-08-18T08:24:09.631Z,74.22
2018-08-18T08:25:09.617Z,74.32
2018-08-18T08:26:09.602Z,74.99
2018-08-18T08:27:09.610Z,73.88
2018-08-18T08:28:09.575Z,72.49
2018-08-18T08:29:09.560Z,72.14
2018-08-18T08:30:09.551Z,71.66
2018-08-18T08:31:09.538Z,73.01
2018-08-18T08:32:09.537Z,71.85
2018-08-18T08:33:09.508Z,71.28
2018-08-18T08:34:09.495Z,70.89
2018-08-18T08:35:09.480Z,70.35
2018-08-18T08:36:09.473Z,70.02
2018-08-18T08:37:09.474Z,69.25
2018-08-18T08:38:09.444Z,69.38
2018-08-18T08:39:09.428Z,69.35
2018-08-18T08:40:09.421Z,70.25
2018-08-18T08:41:09.401Z,70.15
2018-08-18T08:42:09.403Z,69.13
2018-08-18T08:43:09.414Z,67.94
2018-08-18T08:44:09.362Z,67.97
2018-08-18T08:45:09.351Z,69.32
2018-08-18T08:46:09.332Z,67.58
2018-08-18T08:47:09.326Z,65.66
2018-08-18T08:48:09.321Z,65.95
2018-08-18T08:49:09.345Z,65.27
2018-08-18T08:50:09.289Z,65.66
2018-08-18T08:51:09.273Z,66.08
2018-08-18T08:52:09.275Z,66.46
2018-08-18T08:53:09.249Z,65.53
2018-08-18T08:54:09.250Z,65.91
2018-08-18T08:55:09.221Z,65.14
2018-08-18T08:56:09.213Z,64.59
2018-08-18T08:57:09.196Z,62.79
2018-08-18T08:58:09.183Z,62.44
2018-08-18T08:59:09.186Z,61.66
2018-08-18T09:00:09.159Z,61.66
2018-08-18T09:01:09.147Z,61.21
2018-08-18T09:02:09.134Z,60.47
2018-08-18T09:03:09.137Z,60.05
2018-08-18T09:04:09.108Z,58.14
2018-08-18T09:05:09.097Z,57.28
2018-08-18T09:06:09.085Z,57.12
2018-08-18T09:07:09.072Z,57.87
2018-08-18T09:08:09.076Z,57.89
2018-08-18T09:09:09.047Z,58.70
2018-08-18T09:10:09.050Z,56.72
2018-08-18T09:11:09.025Z,54.33
2018-08-18T09:12:09.015Z,54.19
2018-08-18T09:13:08.998Z,53.95
2018-08-18T09:14:09.002Z,52.52
2018-08-18T09:15:08.977Z,51.75
2018-08-18T09:16:08.977Z,50.58
2018-08-18T09:17:08.951Z,49.68
2018-08-18T09:18:08.941Z,51.18
2018-08-18T09:19:08.930Z,51.47
2018-08-18T09:20:08.915Z,52.06
2018-08-18T09:21:08.915Z,51.93
2018-08-18T09:22:08.895Z,50.31
2018-08-18T09:23:08.881Z,49.70
2018-08-18T09:24:08.875Z,52.20
2018-08-18T09:25:08.919Z,51.52
2018-08-18T09:26:08.886Z,51.54
2018-08-18T09:27:08.833Z,50.72
2018-08-18T09:28:08.825Z,49.82
2018-08-18T09:29:08.813Z,49.58
2018-08-18T09:30:08.817Z,50.67
2018-08-18T09:31:08.802Z,51.90
2018-08-18T09:32:08.782Z,51.01
2018-08-18T09:33:08.769Z,53.45
2018-08-18T09:34:08.760Z,57.19
2018-08-18T09:35:08.758Z,57.21
2018-08-18T09:36:08.792Z,57.15
2018-08-18T09:37:08.730Z,55.70
2018-08-18T09:38:08.720Z,55.79
2018-08-18T09:39:08.713Z,55.07
2018-08-18T09:40:08.719Z,54.21
2018-08-18T09:41:08.694Z,54.75
2018-08-18T09:42:08.689Z,55.43
2018-08-18T09:43:08.673Z,55.76
2018-08-18T09:44:08.663Z,54.88
2018-08-18T09:45:08.671Z,54.49
2018-08-18T09:46:08.653Z,55.82
2018-08-18T09:47:08.639Z,57.15
2018-08-18T09:48:08.631Z,59.51
2018-08-18T09:49:08.621Z,60.18
2018-08-18T09:50:08.624Z,59.44
2018-08-18T09:51:08.604Z,57.28
2018-08-18T09:52:08.596Z,56.36
2018-08-18T09:53:08.586Z,54.60
2018-08-18T09:54:08.590Z,54.85
2018-08-18T09:55:08.568Z,51.65
2018-08-18T09:56:08.564Z,51.67
2018-08-18T09:57:08.552Z,52.95
2018-08-18T09:58:08.544Z,52.73
2018-08-18T09:59:08.570Z,52.86
2018-08-18T10:00:08.531Z,52.88
2018-08-18T10:01:08.524Z,52.25
2018-08-18T10:02:08.529Z,49.34
2018-08-18T10:03:08.504Z,49.97
2018-08-18T10:04:08.513Z,50.65
2018-08-18T10:05:08.493Z,50.68
2018-08-18T10:06:08.487Z,50.51
2018-08-18T10:07:08.494Z,48.97
2018-08-18T10:08:08.475Z,48.78
2018-08-18T10:09:08.470Z,49.27
2018-08-18T10:10:08.464Z,48.32
2018-08-18T10:11:08.460Z,49.90
2018-08-18T10:12:08.472Z,50.89
2018-08-18T10:13:08.451Z,52.73
2018-08-18T10:14:08.444Z,52.66
2018-08-18T10:15:08.437Z,53.10
2018-08-18T10:16:08.446Z,51.28
2018-08-18T10:17:08.426Z,51.09
2018-08-18T10:18:08.436Z,50.63
2018-08-18T10:19:08.421Z,49.97
2018-08-18T10:20:08.411Z,50.94
2018-08-18T10:21:08.406Z,50.51
2018-08-18T10:22:08.398Z,48.88
2018-08-18T10:23:29.415Z,49.80
2018-08-18T10:24:08.396Z,50.75
2018-08-18T10:25:08.387Z,49.99
2018-08-18T10:26:08.383Z,49.22
2018-08-18T10:27:08.420Z,49.05
2018-08-18T10:28:08.381Z,49.80
2018-08-18T10:29:08.382Z,50.21
2018-08-18T10:30:08.370Z,50.77
2018-08-18T10:31:08.378Z,50.74
2018-08-18T10:32:08.357Z,50.58
2018-08-18T10:33:08.352Z,51.04
2018-08-18T10:34:08.364Z,51.31
2018-08-18T10:35:08.344Z,51.86
2018-08-18T10:36:08.343Z,53.67
2018-08-18T10:37:08.351Z,52.25
2018-08-18T10:38:08.332Z,52.25
2018-08-18T10:39:08.342Z,53.26
2018-08-18T10:40:08.322Z,56.24
2018-08-18T10:41:08.317Z,57.11
2018-08-18T10:42:08.320Z,56.32
2018-08-18T10:43:08.308Z,52.76
2018-08-18T10:44:08.316Z,52.62
2018-08-18T10:45:08.297Z,50.99
2018-08-18T10:46:08.291Z,51.53
2018-08-18T10:47:08.287Z,49.02
2018-08-18T10:48:08.279Z,49.34
2018-08-18T10:49:08.281Z,46.83
2018-08-18T10:50:08.290Z,47.88
2018-08-18T10:51:08.268Z,48.73
2018-08-18T10:52:08.268Z,48.66
2018-08-18T10:53:08.258Z,48.19
2018-08-18T10:54:08.255Z,45.92
2018-08-18T10:55:08.262Z,46.20
2018-08-18T10:56:08.250Z,47.52
2018-08-18T10:57:08.246Z,50.12
2018-08-18T10:58:08.240Z,51.04
2018-08-18T10:59:08.254Z,51.89
2018-08-18T11:00:08.233Z,53.22
2018-08-18T11:01:08.225Z,52.98
2018-08-18T11:02:08.222Z,51.01
2018-08-18T11:03:08.226Z,50.70
2018-08-18T11:04:08.230Z,46.66
2018-08-18T11:05:08.212Z,47.03
2018-08-18T11:06:08.204Z,47.00
2018-08-18T11:07:08.218Z,47.54
2018-08-18T11:08:08.202Z,48.44
2018-08-18T11:09:08.197Z,48.15
2018-08-18T11:10:08.193Z,49.05
2018-08-18T11:11:08.205Z,47.66
2018-08-18T11:12:08.188Z,47.80
2018-08-18T11:13:08.182Z,46.15
2018-08-18T11:14:08.178Z,47.15
2018-08-18T11:15:08.174Z,46.20
2018-08-18T11:16:08.188Z,48.34
2018-08-18T11:17:08.180Z,47.42
2018-08-18T11:18:08.166Z,47.52
2018-08-18T11:19:08.161Z,46.54
2018-08-18T11:20:08.171Z,45.72
2018-08-18T11:21:08.152Z,46.84
2018-08-18T11:22:08.152Z,47.52
2018-08-18T11:23:08.148Z,48.20
2018-08-18T11:24:08.148Z,49.10
2018-08-18T11:25:08.142Z,46.88
2018-08-18T11:26:08.164Z,47.00
2018-08-18T11:27:08.137Z,45.20
2018-08-18T11:28:08.138Z,43.43
2018-08-18T11:29:08.136Z,45.18
2018-08-18T11:30:08.125Z,44.96
2018-08-18T11:31:08.131Z,44.84
2018-08-18T11:32:08.139Z,45.57
2018-08-18T11:33:08.119Z,45.08
2018-08-18T11:34:08.118Z,44.62
2018-08-18T11:35:08.153Z,45.50
2018-08-18T11:36:08.114Z,47.11
2018-08-18T11:37:08.129Z,49.37
2018-08-18T11:38:08.104Z,47.86
2018-08-18T11:39:08.106Z,45.91
2018-08-18T11:40:08.103Z,46.81
2018-08-18T11:41:08.101Z,46.56
2018-08-18T11:42:08.100Z,44.05
2018-08-18T11:43:08.112Z,43.12
2018-08-18T11:44:08.093Z,43.27
2018-08-18T11:45:08.091Z,43.08
2018-08-18T11:46:08.089Z,43.66
2018-08-18T11:47:08.206Z,42.22
2018-08-18T11:48:08.098Z,43.76
2018-08-18T11:49:08.101Z,44.20
2018-08-18T11:50:08.092Z,44.14
2018-08-18T11:51:08.079Z,44.99
2018-08-18T11:52:08.074Z,45.32
2018-08-18T11:53:08.071Z,48.95
2018-08-18T11:54:08.088Z,45.06
2018-08-18T11:55:08.069Z,44.16
2018-08-18T11:56:08.067Z,44.82
2018-08-18T11:57:08.062Z,45.48
2018-08-18T11:58:08.062Z,46.81
2018-08-18T11:59:08.090Z,46.50
2018-08-18T12:00:08.059Z,47.28
2018-08-18T12:01:08.127Z,49.68
2018-08-18T12:02:08.123Z,48.75
2018-08-18T12:03:08.053Z,48.22
2018-08-18T12:04:08.047Z,48.83
2018-08-18T12:05:08.054Z,46.08
2018-08-18T12:06:08.039Z,49.41
2018-08-18T12:07:08.046Z,45.15
2018-08-18T12:08:08.033Z,47.13
2018-08-18T12:09:08.030Z,46.56
2018-08-18T12:10:08.028Z,44.42
2018-08-18T12:11:08.084Z,44.42
2018-08-18T12:12:08.057Z,42.82
2018-08-18T12:13:08.021Z,43.65
2018-08-18T12:14:08.020Z,45.01
2018-08-18T12:15:08.025Z,44.89
2018-08-18T12:16:08.742Z,45.94
2018-08-18T12:17:08.010Z,44.12
2018-08-18T12:18:08.008Z,46.67
2018-08-18T12:19:08.004Z,45.14
2018-08-18T12:20:29.074Z,44.00
2018-08-18T12:21:08.000Z,45.53
2018-08-18T12:22:08.005Z,47.78
2018-08-18T12:23:07.992Z,47.13
2018-08-18T12:24:07.988Z,47.83
2018-08-18T12:25:07.997Z,44.94
2018-08-18T12:26:07.982Z,44.09
2018-08-18T12:27:07.978Z,44.28
2018-08-18T12:28:07.977Z,45.45
2018-08-18T12:29:07.977Z,46.44
2018-08-18T12:30:07.995Z,43.81
2018-08-18T12:31:07.972Z,43.71
2018-08-18T12:32:07.967Z,43.11
2018-08-18T12:33:07.960Z,44.86
2018-08-18T12:34:07.960Z,43.81
2018-08-18T12:35:07.960Z,44.06
2018-08-18T12:36:08.001Z,44.04
2018-08-18T12:37:07.961Z,45.60
2018-08-18T12:38:07.947Z,46.47
2018-08-18T12:39:07.946Z,46.98
2018-08-18T12:40:07.941Z,46.78
2018-08-18T12:41:07.952Z,47.20
2018-08-18T12:42:07.937Z,45.67
2018-08-18T12:43:07.945Z,45.57
2018-08-18T12:44:07.931Z,46.95
2018-08-18T12:45:07.928Z,42.88
2018-08-18T12:46:07.944Z,41.81
2018-08-18T12:47:07.924Z,43.00
2018-08-18T12:48:07.935Z,41.42
2018-08-18T12:49:07.919Z,42.16
2018-08-18T12:50:08.014Z,42.80
2018-08-18T12:51:07.912Z,42.58
2018-08-18T12:52:07.912Z,43.65